TAF Text Data
IDs:
Format:
Raw Decoded Include METAR

Data at: 2105 UTC 01 Dec 2021

KCDR 011720Z 0118/0218 28014G24KT P6SM BKN200
  FM012300 28010KT P6SM SCT200
  FM020100 25008KT P6SM SKC
  FM020300 25010KT P6SM FEW200 WS020/30030KT